クグルクトゥク の空港の天気 - METARとTAF

Coppermine ( CYCO / YCO ) - カナダ ヌナブト準州Kugluktuk
飛行場実況気象(Metar)
観測時間10/16 00:23 MDT (10/16 06:23 UTC)
風向・風速西 4m/s
視程9650m
天気現象弱い氷霧雨 弱い霧雪
全天の4割程度の雲 雲底高度 240m
全天を覆う雲 雲底高度 400m
気温-8℃
湿度93%
気圧1024.7hPa
METARCYCO 160623Z 27008KT 6SM -FZDZ -SG SCT008 OVC013 M08/M09 A3025 RMK ST3ST5 SLP247
過去の天気等 Google飛行場航空写真 Wunderground天気予報

過去48時間のMETAR

飛行場予報(TAF)
発表時間: 10/16 00:40 MDT (10/16 06:40 UTC)
予報対象時間: 16日1時 MDT ~ 16日13時 MDT
風向・風速西北西 4m/s
視程10km以上
天気現象弱い氷霧雨 弱い霧雪
全天の4割程度の雲 雲底高度 240m
全天を覆う雲 雲底高度 300m
16日1時 MDT ~ 16日7時 MDT に一時的に
視程3220m
天気現象弱い氷霧雨 もや
全天を覆う雲 雲底高度 180m
16日7時 MDT から
風向・風速西 5m/s
視程10km以上
天気現象弱い雪
全天を覆う雲 雲底高度 460m
16日7時 MDT ~ 16日13時 MDT に一時的に
全天を覆う雲 雲底高度 180m
TAF CYCO 160640Z 1607/1619 30008KT 6SM -FZDZ -SG SCT008 OVC010
TEMPO 1607/1613 2SM -FZDZ BR OVC006
FM161300 28010KT P6SM -SN OVC015
TEMPO 1613/1619 OVC006 RMK NXT FCST BY 161300Z